Time;durP1;ratioP1;P1;durP2;ratioP2;P2;SDS_P1;SDS_P2;PMS_P1;PMS_P2;Temp;Humidity;BMP_temperature;BMP_pressure;BME280_temperature;BME280_humidity;BME280_pressure;Samples;Min_cycle;Max_cycle;Signal;HPM_P1;HPM_P2
2022/09/01 00:02:07;;;;;;;21.20;18.23;;;;;;;13.73;100.00;96532.84;5064633;28;20099;-74
2022/09/01 00:04:37;;;;;;;20.60;18.25;;;;;;;13.73;100.00;96527.56;5066580;28;20153;-74
2022/09/01 00:07:07;;;;;;;21.03;17.83;;;;;;;13.76;100.00;96521.94;5063970;28;20038;-74
2022/09/01 00:09:34;;;;;;;19.93;17.80;;;;;;;13.76;100.00;96524.56;5058185;28;20033;-74
2022/09/01 00:12:01;;;;;;;19.23;16.57;;;;;;;13.81;100.00;96522.22;5055469;28;20597;-74
2022/09/01 00:14:31;;;;;;;21.97;17.87;;;;;;;13.79;100.00;96526.06;5060934;28;20043;-74
2022/09/01 00:17:00;;;;;;;21.17;17.17;;;;;;;13.86;100.00;96529.66;5068974;28;20044;-74
2022/09/01 00:19:26;;;;;;;20.73;17.23;;;;;;;13.89;100.00;96524.84;5073624;28;20036;-74
2022/09/01 00:21:52;;;;;;;18.70;16.70;;;;;;;13.86;100.00;96527.84;5069406;28;20035;-74
2022/09/01 00:24:18;;;;;;;20.20;16.33;;;;;;;13.85;100.00;96518.25;5063793;28;20051;-74
2022/09/01 00:26:45;;;;;;;21.07;17.77;;;;;;;13.71;100.00;96524.25;5065990;28;20079;-74
2022/09/01 00:29:11;;;;;;;20.83;17.97;;;;;;;13.76;100.00;96531.69;5061191;28;20040;-74
2022/09/01 00:31:38;;;;;;;19.93;17.77;;;;;;;13.61;100.00;96521.00;5069115;28;20047;-73
2022/09/01 00:34:04;;;;;;;21.03;17.20;;;;;;;13.55;100.00;96522.53;5050815;28;20036;-74
2022/09/01 00:36:30;;;;;;;22.50;18.73;;;;;;;13.49;100.00;96519.72;5066908;28;20033;-74
2022/09/01 00:38:56;;;;;;;21.47;19.20;;;;;;;13.50;100.00;96524.00;5066933;28;20028;-74
2022/09/01 00:41:25;;;;;;;22.93;20.17;;;;;;;13.48;100.00;96526.84;5061695;28;20059;-73
2022/09/01 00:43:58;;;;;;;26.10;21.03;;;;;;;13.53;100.00;96523.69;5057276;28;20504;-74
2022/09/01 00:46:28;;;;;;;24.00;20.48;;;;;;;13.43;100.00;96519.41;5042731;28;20025;-74
2022/09/01 00:49:02;;;;;;;26.50;21.70;;;;;;;13.44;100.00;96521.03;5066184;28;20405;-74
2022/09/01 00:51:30;;;;;;;24.95;21.80;;;;;;;13.31;100.00;96515.50;5061994;28;20033;-74
2022/09/01 00:53:59;;;;;;;25.90;22.77;;;;;;;13.26;100.00;96517.81;5066606;28;20094;-74
2022/09/01 00:56:25;;;;;;;25.03;21.93;;;;;;;13.28;100.00;96521.13;5069066;28;20496;-73
2022/09/01 00:58:52;;;;;;;27.63;23.23;;;;;;;13.11;100.00;96522.09;5067032;28;20103;-73
2022/09/01 01:01:18;;;;;;;27.27;24.30;;;;;;;13.10;100.00;96518.63;5067335;28;20040;-74
2022/09/01 01:03:46;;;;;;;28.87;23.70;;;;;;;13.08;100.00;96514.53;5068372;28;20070;-74
2022/09/01 01:06:14;;;;;;;30.80;23.73;;;;;;;13.06;100.00;96517.31;5069230;28;20033;-74
2022/09/01 01:08:48;;;;;;;31.37;26.13;;;;;;;13.02;100.00;96512.56;5070074;28;20107;-74
2022/09/01 01:11:18;;;;;;;32.70;26.27;;;;;;;13.02;100.00;96518.66;5072229;28;20115;-73
2022/09/01 01:14:16;;;;;;;31.67;25.33;;;;;;;13.14;100.00;96512.00;5066798;28;20024;-73
2022/09/01 01:16:44;;;;;;;36.90;26.30;;;;;;;13.12;100.00;96521.13;5046067;28;20051;-74
2022/09/01 01:25:21;;;;;;;35.33;28.43;;;;;;;13.29;100.00;96506.91;5067420;28;20751;-74
2022/09/01 01:27:47;;;;;;;36.50;29.97;;;;;;;13.36;100.00;96504.41;5066958;28;20039;-73
2022/09/01 01:30:15;;;;;;;36.90;28.80;;;;;;;13.39;100.00;96504.06;5063655;28;20038;-74
2022/09/01 01:32:41;;;;;;;39.97;31.43;;;;;;;13.43;100.00;96500.91;5061035;28;20040;-73
2022/09/01 01:35:13;;;;;;;39.40;31.87;;;;;;;13.42;100.00;96501.91;5034120;28;20037;-74
2022/09/01 01:37:47;;;;;;;40.08;30.42;;;;;;;13.47;100.00;96503.22;5067873;28;20037;-74
2022/09/01 01:40:17;;;;;;;37.53;30.03;;;;;;;13.50;100.00;96502.88;5054210;28;20056;-74
2022/09/01 01:42:49;;;;;;;41.07;32.37;;;;;;;13.49;100.00;96496.78;5062207;28;20039;-74
2022/09/01 01:45:18;;;;;;;39.30;31.60;;;;;;;13.50;100.00;96498.41;5070516;28;20067;-74
2022/09/01 01:47:52;;;;;;;38.43;31.57;;;;;;;13.55;100.00;96501.38;5068923;28;20671;-74
2022/09/01 01:50:21;;;;;;;40.33;30.73;;;;;;;13.57;100.00;96501.19;5068027;28;20039;-73
2022/09/01 01:52:47;;;;;;;38.80;31.80;;;;;;;13.50;100.00;96498.41;5042625;28;20056;-74
2022/09/01 01:55:18;;;;;;;37.83;30.50;;;;;;;13.51;100.00;96507.16;5069685;28;20094;-74
2022/09/01 01:57:49;;;;;;;39.07;29.80;;;;;;;13.47;100.00;96504.03;5071671;28;20033;-74
2022/09/01 02:00:20;;;;;;;36.07;27.80;;;;;;;13.49;100.00;96506.53;5063686;28;20063;-73
2022/09/01 02:02:51;;;;;;;37.07;29.37;;;;;;;13.56;100.00;96507.47;5070361;28;20029;-73
2022/09/01 02:05:38;;;;;;;37.50;29.57;;;;;;;13.51;100.00;96504.50;5069381;28;20428;-74
2022/09/01 02:08:07;;;;;;;33.97;28.80;;;;;;;13.50;100.00;96506.34;5034748;28;20033;-74
2022/09/01 02:10:42;;;;;;;32.60;26.47;;;;;;;13.50;100.00;96505.53;5070199;28;20016;-73
2022/09/01 02:13:15;;;;;;;37.87;26.50;;;;;;;13.48;100.00;96510.13;5055491;28;20031;-74
2022/09/01 02:15:47;;;;;;;28.93;25.30;;;;;;;13.51;100.00;96497.41;5068795;28;20119;-74
2022/09/01 02:18:37;;;;;;;30.05;24.45;;;;;;;13.51;100.00;96496.59;5058045;28;20027;-74
2022/09/01 02:21:09;;;;;;;28.63;23.63;;;;;;;13.47;100.00;96492.66;5069649;28;20663;-74
2022/09/01 02:23:39;;;;;;;29.98;24.13;;;;;;;13.39;100.00;96494.31;5061789;28;20154;-74
2022/09/01 02:26:07;;;;;;;29.07;23.23;;;;;;;13.42;100.00;96490.53;5060356;28;20029;-74
2022/09/01 02:28:38;;;;;;;26.57;22.77;;;;;;;13.37;100.00;96491.03;5071938;28;20035;-73
2022/09/01 02:31:07;;;;;;;31.23;24.33;;;;;;;13.36;100.00;96496.50;5070956;28;20444;-73
2022/09/01 02:33:35;;;;;;;27.83;23.23;;;;;;;13.35;100.00;96490.38;5069790;28;20555;-74
2022/09/01 02:36:07;;;;;;;31.80;24.87;;;;;;;13.35;100.00;96484.28;5068623;28;20622;-74
2022/09/01 02:38:33;;;;;;;26.97;24.03;;;;;;;13.31;100.00;96485.59;5069475;28;20043;-74
2022/09/01 02:41:01;;;;;;;29.50;24.90;;;;;;;13.35;100.00;96486.94;5069402;28;20024;-73
2022/09/01 02:43:30;;;;;;;27.03;22.37;;;;;;;13.35;100.00;96484.28;5069013;28;20111;-73
2022/09/01 02:45:58;;;;;;;33.10;26.23;;;;;;;13.35;100.00;96482.47;5068213;28;20111;-73
2022/09/01 02:48:34;;;;;;;31.43;24.60;;;;;;;13.37;100.00;96483.09;5052783;28;20020;-73
2022/09/01 02:51:07;;;;;;;28.63;23.87;;;;;;;13.30;100.00;96487.41;5068695;28;20048;-73
2022/09/01 02:53:34;;;;;;;27.20;23.77;;;;;;;13.26;100.00;96483.47;5063361;28;20044;-73
2022/09/01 02:56:01;;;;;;;30.00;25.30;;;;;;;13.25;100.00;96484.47;5067879;28;20036;-74
2022/09/01 02:58:31;;;;;;;30.47;25.87;;;;;;;13.25;100.00;96484.47;5047750;28;20033;-73
2022/09/01 03:00:57;;;;;;;30.00;25.10;;;;;;;13.30;100.00;96487.41;5051111;28;20029;-74
2022/09/01 03:03:24;;;;;;;30.77;25.30;;;;;;;13.32;100.00;96492.53;5068469;28;20043;-74
2022/09/01 03:05:54;;;;;;;30.67;25.40;;;;;;;13.31;100.00;96488.22;5051542;28;20044;-73
2022/09/01 03:08:21;;;;;;;29.50;25.87;;;;;;;13.42;100.00;96486.06;5068072;28;20497;-73
2022/09/01 03:10:46;;;;;;;31.13;25.53;;;;;;;13.42;100.00;96487.88;5060629;28;20082;-73
2022/09/01 03:13:15;;;;;;;30.50;26.43;;;;;;;13.43;100.00;96493.00;5069857;28;20040;-73
2022/09/01 03:15:42;;;;;;;32.30;26.83;;;;;;;13.41;100.00;96484.44;5068476;28;20398;-73
2022/09/01 03:18:10;;;;;;;30.27;24.60;;;;;;;13.38;100.00;96494.47;5059060;28;20031;-73
2022/09/01 03:20:41;;;;;;;36.83;28.40;;;;;;;13.32;100.00;96492.53;5060003;28;20081;-74
2022/09/01 03:23:07;;;;;;;35.50;29.13;;;;;;;13.34;100.00;96488.72;5066792;28;21563;-74
2022/09/01 03:25:35;;;;;;;37.27;29.77;;;;;;;13.31;100.00;96494.38;5051580;28;20076;-73
2022/09/01 03:28:03;;;;;;;38.43;30.43;;;;;;;13.35;100.00;96490.38;5060242;28;20086;-73
2022/09/01 03:30:32;;;;;;;44.10;31.77;;;;;;;13.35;100.00;96490.38;5065436;28;20125;-74
2022/09/01 03:33:00;;;;;;;41.07;30.23;;;;;;;13.42;100.00;96490.53;5052061;28;20489;-74
2022/09/01 03:35:30;;;;;;;42.47;31.63;;;;;;;13.41;100.00;96500.28;5067389;28;20685;-73
2022/09/01 03:37:59;;;;;;;46.63;33.97;;;;;;;13.40;100.00;96495.97;5051009;28;20440;-74
2022/09/01 03:40:31;;;;;;;45.03;32.57;;;;;;;13.40;100.00;96498.59;5068189;28;20024;-73
2022/09/01 03:42:59;;;;;;;48.20;32.50;;;;;;;13.41;100.00;96500.28;5069680;28;20032;-73
2022/09/01 03:45:25;;;;;;;48.20;33.47;;;;;;;13.52;100.00;96499.06;5063792;28;20028;-74
2022/09/01 03:47:53;;;;;;;46.40;31.80;;;;;;;13.61;100.00;96499.84;5067833;28;20557;-73
2022/09/01 03:50:21;;;;;;;43.97;30.50;;;;;;;13.66;100.00;96497.53;5068299;28;20374;-73
2022/09/01 03:52:50;;;;;;;47.03;32.10;;;;;;;13.68;100.00;96495.53;5069117;28;20042;-73
2022/09/01 03:55:22;;;;;;;46.40;32.53;;;;;;;13.67;100.00;96501.81;5068316;28;20020;-73
2022/09/01 03:57:49;;;;;;;44.53;31.30;;;;;;;13.75;100.00;96501.78;5067970;28;20059;-74
2022/09/01 04:00:19;;;;;;;42.27;31.03;;;;;;;13.76;100.00;96498.16;5069072;28;20638;-74
2022/09/01 04:02:49;;;;;;;41.93;28.77;;;;;;;13.81;100.00;96495.78;5062734;28;20025;-74
2022/09/01 04:05:23;;;;;;;40.07;29.47;;;;;;;13.83;100.00;96488.53;5068153;28;20119;-73
2022/09/01 04:07:50;;;;;;;41.70;28.57;;;;;;;13.86;100.00;96490.00;5060009;28;20739;-73
2022/09/01 04:10:17;;;;;;;40.37;29.43;;;;;;;13.89;100.00;96493.13;5060399;28;20497;-73
2022/09/01 04:12:44;;;;;;;41.27;29.40;;;;;;;13.99;100.00;96487.63;5060290;28;20029;-73
2022/09/01 04:15:12;;;;;;;37.03;27.80;;;;;;;13.94;100.00;96486.47;5067369;28;20086;-74
2022/09/01 04:20:23;;;;;;;33.88;25.15;;;;;;;13.96;100.00;96482.69;5067897;28;20032;-74
2022/09/01 04:22:50;;;;;;;32.20;24.70;;;;;;;13.98;100.00;96485.13;5079731;28;20032;-74
2022/09/01 04:25:24;;;;;;;33.17;25.53;;;;;;;13.95;100.00;96482.84;5071339;28;20040;-74
2022/09/01 04:27:54;;;;;;;34.07;25.47;;;;;;;14.01;100.00;96482.97;5050303;28;20033;-74
2022/09/01 04:30:32;;;;;;;31.73;24.73;;;;;;;13.99;100.00;96481.50;5055684;28;20027;-74
2022/09/01 04:32:58;;;;;;;33.53;24.17;;;;;;;13.96;100.00;96487.16;5070362;28;20036;-74
2022/09/01 04:35:31;;;;;;;29.73;23.83;;;;;;;14.05;100.00;96486.06;5071660;28;20030;-74
2022/09/01 04:37:58;;;;;;;31.48;23.52;;;;;;;13.98;100.00;96485.13;5061177;28;20036;-74
2022/09/01 04:40:26;;;;;;;30.80;24.23;;;;;;;14.04;100.00;96485.25;5067642;28;20048;-74
2022/09/01 04:42:52;;;;;;;29.47;22.77;;;;;;;14.08;100.00;96483.09;5046061;28;20041;-74
2022/09/01 04:45:21;;;;;;;27.87;22.07;;;;;;;14.05;100.00;96489.56;5066188;28;20054;-74
2022/09/01 04:47:48;;;;;;;27.92;21.65;;;;;;;14.06;100.00;96493.84;5062220;28;20076;-74
2022/09/01 04:50:16;;;;;;;24.08;19.73;;;;;;;14.05;100.00;96491.38;5059985;28;20036;-74
2022/09/01 04:52:55;;;;;;;25.75;21.55;;;;;;;14.02;100.00;96489.91;5053438;28;20119;-74
2022/09/01 04:55:29;;;;;;;25.60;20.93;;;;;;;14.02;100.00;96497.03;5059597;28;20040;-74
2022/09/01 04:57:57;;;;;;;25.88;21.23;;;;;;;14.04;100.00;96495.84;5062508;28;20070;-74
2022/09/01 05:00:26;;;;;;;29.07;23.37;;;;;;;14.06;100.00;96493.84;5072128;28;20023;-74
2022/09/01 05:03:01;;;;;;;29.52;22.05;;;;;;;14.12;100.00;96505.56;5064378;28;20405;-74
2022/09/01 05:05:38;;;;;;;25.60;21.33;;;;;;;14.12;100.00;96497.63;5051105;28;20087;-74
2022/09/01 05:08:13;;;;;;;24.27;20.27;;;;;;;14.19;100.00;96490.63;5062969;28;20028;-74
2022/09/01 05:10:43;;;;;;;28.35;21.58;;;;;;;14.17;100.00;96495.28;5059655;28;20068;-74
2022/09/01 05:13:28;;;;;;;26.58;21.58;;;;;;;14.18;100.00;96493.44;5064928;28;20063;-74
2022/09/01 05:16:05;;;;;;;25.92;20.63;;;;;;;14.15;100.00;96486.69;5061736;28;20037;-74
2022/09/01 05:18:32;;;;;;;25.92;21.02;;;;;;;14.17;100.00;96486.50;5062466;28;20782;-74
2022/09/01 05:21:04;;;;;;;24.77;20.77;;;;;;;14.17;100.00;96486.50;5067756;28;20028;-74
2022/09/01 05:23:31;;;;;;;24.57;21.43;;;;;;;14.15;100.00;96492.81;5058370;28;20024;-73
2022/09/01 05:25:57;;;;;;;24.03;19.33;;;;;;;14.20;100.00;96489.63;5059903;28;20047;-74
2022/09/01 05:28:24;;;;;;;26.43;19.73;;;;;;;14.34;100.00;96491.50;5065065;28;20483;-74
2022/09/01 05:30:53;;;;;;;24.60;19.87;;;;;;;14.39;100.00;96488.34;5071870;28;20039;-74
2022/09/01 05:33:20;;;;;;;24.52;20.90;;;;;;;14.36;100.00;96486.88;5071235;28;20032;-74
2022/09/01 05:36:07;;;;;;;23.88;20.27;;;;;;;14.36;100.00;96486.88;5070378;28;20044;-74
2022/09/01 05:38:33;;;;;;;23.17;20.55;;;;;;;14.42;100.00;96481.84;5066642;28;20498;-74
2022/09/01 05:41:03;;;;;;;25.88;21.20;;;;;;;14.37;100.00;96482.41;5061822;28;20025;-74
2022/09/01 05:43:30;;;;;;;22.15;19.75;;;;;;;14.53;100.00;96484.97;5045632;28;20039;-74
2022/09/01 05:45:57;;;;;;;24.07;20.20;;;;;;;14.51;100.00;96488.78;5044387;28;20041;-74
2022/09/01 05:48:24;;;;;;;24.80;21.40;;;;;;;14.52;100.00;96487.75;5070059;28;20490;-73
2022/09/01 05:50:55;;;;;;;25.33;20.77;;;;;;;14.45;100.00;96487.63;5062540;28;20025;-74
2022/09/01 05:53:24;;;;;;;24.52;21.35;;;;;;;14.46;100.00;96486.63;5045885;28;20039;-74
2022/09/01 05:55:56;;;;;;;23.10;20.35;;;;;;;14.48;100.00;96481.97;5061590;28;20036;-74
2022/09/01 05:58:25;;;;;;;26.08;22.63;;;;;;;14.57;100.00;96485.44;5054082;28;20042;-74
2022/09/01 06:00:54;;;;;;;23.83;21.10;;;;;;;14.54;100.00;96488.41;5070485;28;20040;-74
2022/09/01 06:03:21;;;;;;;26.30;22.50;;;;;;;14.63;100.00;96489.19;5064678;28;20091;-74
2022/09/01 06:05:54;;;;;;;27.55;22.55;;;;;;;14.72;100.00;96493.41;5068193;28;20119;-74
2022/09/01 06:08:24;;;;;;;28.17;22.35;;;;;;;14.68;100.00;96492.94;5069536;28;20111;-74
2022/09/01 06:10:51;;;;;;;26.55;22.08;;;;;;;14.73;100.00;96495.88;5062202;28;20025;-74
2022/09/01 06:13:20;;;;;;;24.92;22.10;;;;;;;14.61;100.00;96489.34;5053532;28;20016;-74
2022/09/01 06:15:52;;;;;;;24.30;21.70;;;;;;;14.55;100.00;96482.97;5063087;28;20414;-74
2022/09/01 06:18:20;;;;;;;26.38;21.77;;;;;;;14.71;100.00;96489.94;5069929;28;20036;-74
2022/09/01 06:20:54;;;;;;;28.55;22.75;;;;;;;14.78;100.00;96493.50;5067086;28;20163;-74
2022/09/01 06:23:20;;;;;;;26.75;22.30;;;;;;;14.84;100.00;96492.78;5058525;28;20032;-74
2022/09/01 06:25:46;;;;;;;26.85;22.63;;;;;;;14.91;100.00;96489.44;5042706;28;20028;-74
2022/09/01 06:28:17;;;;;;;28.27;23.10;;;;;;;14.90;100.00;96491.25;5061081;28;20032;-74
2022/09/01 06:30:44;;;;;;;28.00;23.58;;;;;;;14.98;100.00;96493.81;5050155;28;20523;-74
2022/09/01 06:33:12;;;;;;;27.15;23.55;;;;;;;15.20;100.00;96486.00;5070212;28;20090;-74
2022/09/01 06:35:43;;;;;;;25.80;23.08;;;;;;;15.72;100.00;96479.78;5069228;28;20058;-74
2022/09/01 06:38:11;;;;;;;25.67;22.73;;;;;;;16.37;100.00;96462.97;5065714;28;20386;-74
2022/09/01 06:40:47;;;;;;;23.65;19.95;;;;;;;16.69;100.00;96461.59;5059544;28;20128;-74
2022/09/01 06:43:14;;;;;;;21.65;19.33;;;;;;;16.29;100.00;96463.06;5061181;28;20039;-74
2022/09/01 06:45:53;;;;;;;22.35;19.63;;;;;;;16.15;100.00;96462.13;5063887;28;20477;-74
2022/09/01 06:48:22;;;;;;;23.73;19.40;;;;;;;16.03;100.00;96471.59;5068755;28;20028;-74
2022/09/01 06:50:50;;;;;;;21.52;18.27;;;;;;;16.09;100.00;96462.88;5061152;28;20059;-74
2022/09/01 06:53:17;;;;;;;20.98;18.77;;;;;;;16.12;100.00;96466.97;5061839;28;20024;-74
2022/09/01 06:55:48;;;;;;;20.85;18.17;;;;;;;16.38;100.00;96463.78;5072052;28;20111;-74
2022/09/01 06:58:14;;;;;;;20.58;18.48;;;;;;;16.36;100.00;96465.78;5048195;28;20033;-74
2022/09/01 07:00:47;;;;;;;21.02;18.08;;;;;;;16.13;100.00;96466.81;5067037;28;20028;-74
2022/09/01 07:03:14;;;;;;;20.52;18.33;;;;;;;16.32;100.00;96478.63;5048297;28;20024;-74
2022/09/01 07:06:05;;;;;;;20.95;18.17;;;;;;;16.51;100.00;96474.53;5060710;28;20039;-74
2022/09/01 07:08:57;;;;;;;20.27;17.67;;;;;;;16.46;100.00;96471.59;5048812;28;20085;-74
2022/09/01 07:11:29;;;;;;;19.13;17.08;;;;;;;16.62;100.00;96481.16;5064356;28;20485;-74
2022/09/01 07:14:00;;;;;;;19.85;17.75;;;;;;;16.61;100.00;96471.53;5069419;28;20041;-74
2022/09/01 07:16:33;;;;;;;18.77;16.75;;;;;;;16.79;100.00;96476.41;5043796;28;20024;-74
2022/09/01 07:19:00;;;;;;;20.35;17.92;;;;;;;16.67;100.00;96474.25;5061793;28;20062;-74
2022/09/01 07:21:30;;;;;;;18.00;15.48;;;;;;;16.70;100.00;96468.56;5061958;28;20402;-73
2022/09/01 07:24:00;;;;;;;20.10;16.33;;;;;;;17.30;100.00;96468.19;5059301;28;20029;-74
2022/09/01 07:26:27;;;;;;;17.15;14.77;;;;;;;17.02;100.00;96461.06;5060691;28;20043;-74
2022/09/01 07:28:56;;;;;;;18.50;16.58;;;;;;;17.00;100.00;96467.56;5058495;28;20382;-73
2022/09/01 07:31:28;;;;;;;20.52;18.33;;;;;;;16.84;100.00;96463.41;5063075;28;20036;-74
2022/09/01 07:33:57;;;;;;;;;;;;;;;16.57;100.00;96470.28;5067193;28;20039;-73
2022/09/01 07:36:25;;;;;;;19.60;17.55;;;;;;;16.63;100.00;96475.66;5046561;28;19912;-74
2022/09/01 07:38:54;;;;;;;19.13;17.13;;;;;;;16.73;100.00;96481.47;5044220;28;20029;-74
2022/09/01 07:41:23;;;;;;;20.48;18.42;;;;;;;16.57;100.00;96484.38;5060454;28;20032;-74
2022/09/01 07:44:25;;;;;;;20.37;18.27;;;;;;;16.13;100.00;96487.19;5063533;28;20086;-74
2022/09/01 07:47:09;;;;;;;15.82;14.23;;;;;;;16.39;100.00;96482.16;5062475;28;20915;-73
2022/09/01 07:49:39;;;;;;;14.75;13.15;;;;;;;16.34;100.00;96483.75;5043585;28;20028;-74
2022/09/01 07:52:06;;;;;;;13.02;10.10;;;;;;;16.32;100.00;96485.75;5070498;28;20078;-73
2022/09/01 07:54:36;;;;;;;10.82;9.55;;;;;;;16.66;100.00;96475.25;5043765;28;20115;-74
2022/09/01 07:57:03;;;;;;;11.32;10.13;;;;;;;17.00;100.00;96483.50;5059980;28;20024;-74
2022/09/01 07:59:32;;;;;;;11.25;10.05;;;;;;;17.10;100.00;96478.69;5060735;28;20020;-74
2022/09/01 08:02:04;;;;;;;11.77;9.97;;;;;;;17.01;100.00;96486.00;5068157;28;20166;-74
2022/09/01 08:04:33;;;;;;;10.05;8.48;;;;;;;17.02;100.00;96490.28;5057864;28;20090;-73
2022/09/01 08:06:59;;;;;;;11.13;9.13;;;;;;;17.02;100.00;96492.13;5064016;28;20033;-74
2022/09/01 08:09:27;;;;;;;11.88;9.40;;;;;;;16.72;100.00;96501.03;5056935;28;20505;-74
2022/09/01 08:11:53;;;;;;;10.75;8.85;;;;;;;16.71;100.00;96502.06;5065328;28;20033;-73
2022/09/01 08:14:19;;;;;;;12.52;9.20;;;;;;;16.59;100.00;96505.41;5044838;28;20056;-74
2022/09/01 08:16:44;;;;;;;11.15;9.48;;;;;;;16.43;100.00;96506.47;5068423;28;20029;-74
2022/09/01 08:19:12;;;;;;;9.80;8.63;;;;;;;16.46;100.00;96508.75;5061570;28;20038;-74
2022/09/01 08:21:57;;;;;;;10.98;9.70;;;;;;;16.19;100.00;96516.44;5065856;28;20036;-74
2022/09/01 08:24:33;;;;;;;11.63;9.90;;;;;;;16.28;100.00;96514.50;5056703;28;20024;-74
2022/09/01 08:26:59;;;;;;;10.75;8.73;;;;;;;16.46;100.00;96514.06;5066658;28;20516;-74
2022/09/01 08:29:25;;;;;;;12.85;10.88;;;;;;;16.31;100.00;96518.63;5069337;28;20791;-74
2022/09/01 08:31:52;;;;;;;12.10;9.30;;;;;;;16.43;100.00;96517.94;5067987;28;20114;-73
2022/09/01 08:34:18;;;;;;;11.63;10.43;;;;;;;16.81;100.00;96516.91;5060021;28;20082;-74
2022/09/01 08:36:45;;;;;;;12.77;10.68;;;;;;;16.94;100.00;96511.69;5058235;28;20029;-74
2022/09/01 08:39:10;;;;;;;11.70;9.75;;;;;;;17.18;100.00;96508.59;5063801;28;20559;-74
2022/09/01 08:41:39;;;;;;;11.98;10.77;;;;;;;17.50;100.00;96505.50;5061232;28;20028;-74
2022/09/01 08:44:15;;;;;;;11.15;9.90;;;;;;;17.31;100.00;96504.41;5058581;28;20078;-74
2022/09/01 08:46:42;;;;;;;10.32;8.90;;;;;;;17.35;100.00;96505.66;5057942;28;20104;-74
2022/09/01 08:49:15;;;;;;;10.88;8.13;;;;;;;17.93;100.00;96506.16;5055339;28;20028;-74
2022/09/01 08:52:21;;;;;;;10.57;9.43;;;;;;;17.90;100.00;96502.06;5069178;28;20110;-74
2022/09/01 08:55:01;;;;;;;9.55;7.63;;;;;;;18.06;100.00;96498.25;5051252;28;20119;-74
2022/09/01 08:57:44;;;;;;;8.30;7.07;;;;;;;17.48;100.00;96504.91;5063010;28;20048;-74
2022/09/01 09:00:23;;;;;;;9.65;7.47;;;;;;;17.83;100.00;96511.03;5062890;28;20032;-74
2022/09/01 09:03:20;;;;;;;8.05;6.75;;;;;;;17.55;100.00;96508.41;5050888;28;20024;-74
2022/09/01 09:06:06;;;;;;;8.07;6.10;;;;;;;17.65;100.00;96517.69;5066648;28;20053;-74
2022/09/01 09:09:02;;;;;;;9.63;6.45;;;;;;;17.57;100.00;96515.19;5061587;28;20032;-73
2022/09/01 09:11:37;;;;;;;8.60;6.03;;;;;;;17.66;100.00;96514.00;5063878;28;20394;-74
2022/09/01 09:14:34;;;;;;;8.57;5.82;;;;;;;17.60;100.00;96520.09;5055808;28;20024;-74
2022/09/01 09:17:00;;;;;;;9.65;7.03;;;;;;;17.76;100.00;96523.47;5044927;28;20037;-74
2022/09/01 09:19:39;;;;;;;9.73;7.63;;;;;;;18.10;100.00;96523.41;5061279;28;20047;-74
2022/09/01 09:22:09;;;;;;;10.20;5.88;;;;;;;18.67;100.00;96515.97;5064601;28;20538;-74
2022/09/01 09:24:48;;;;;;;7.80;6.10;;;;;;;18.11;100.00;96519.75;5065898;28;20180;-74
2022/09/01 09:27:18;;;;;;;9.00;6.07;;;;;;;19.03;100.00;96510.31;5064594;28;20025;-74
2022/09/01 09:29:46;;;;;;;8.00;5.30;;;;;;;19.27;100.00;96498.19;5061434;28;20111;-74
2022/09/01 09:32:11;;;;;;;8.77;5.80;;;;;;;19.05;100.00;96512.78;5075114;28;20056;-74
2022/09/01 09:34:40;;;;;;;8.18;5.15;;;;;;;19.37;100.00;96513.75;5061447;28;20067;-74
2022/09/01 09:37:18;;;;;;;7.45;4.90;;;;;;;19.42;100.00;96502.47;5061990;28;20063;-74
2022/09/01 09:39:44;;;;;;;6.38;5.22;;;;;;;20.51;100.00;96506.19;5060847;28;20025;-74
2022/09/01 09:42:12;;;;;;;8.55;4.93;;;;;;;21.50;100.00;96485.88;5068921;28;20511;-75
2022/09/01 09:44:49;;;;;;;7.82;5.50;;;;;;;20.85;100.00;96510.28;5060866;28;20056;-74
2022/09/01 09:47:36;;;;;;;6.63;4.88;;;;;;;19.59;100.00;96503.66;5065435;28;20025;-75
2022/09/01 09:50:13;;;;;;;5.72;4.50;;;;;;;19.21;100.00;96506.19;5059143;28;20028;-75
2022/09/01 09:52:39;;;;;;;6.13;4.35;;;;;;;18.89;100.00;96505.19;5060619;28;20029;-75
2022/09/01 09:55:21;;;;;;;7.22;4.85;;;;;;;18.46;100.00;96516.97;5063345;28;20390;-74
2022/09/01 09:57:48;;;;;;;7.05;5.63;;;;;;;18.67;100.00;96512.50;5064296;28;20032;-75
2022/09/01 10:00:33;;;;;;;6.57;4.93;;;;;;;18.47;100.00;96510.63;5059833;28;20133;-75
2022/09/01 10:03:12;;;;;;;7.53;5.72;;;;;;;18.21;100.00;96507.91;5063030;28;20041;-74
2022/09/01 10:05:43;;;;;;;7.22;5.70;;;;;;;17.92;100.00;96512.53;5071576;28;20032;-74
2022/09/01 10:08:35;;;;;;;7.85;6.15;;;;;;;18.34;100.00;96505.28;5062284;28;20028;-75
2022/09/01 10:11:03;;;;;;;8.50;6.00;;;;;;;18.03;100.00;96509.28;5065849;28;20706;-75
2022/09/01 10:13:30;;;;;;;9.15;6.18;;;;;;;17.97;100.00;96515.38;5072643;28;20491;-74
2022/09/01 10:16:00;;;;;;;11.27;6.05;;;;;;;17.91;100.00;96505.56;5058927;28;20047;-74
2022/09/01 10:18:35;;;;;;;6.80;5.93;;;;;;;18.32;100.00;96504.66;5045090;28;20037;-75
2022/09/01 10:21:08;;;;;;;14.82;6.20;;;;;;;18.51;100.00;96498.56;5063342;28;20921;-75
2022/09/01 10:23:36;;;;;;;7.07;5.45;;;;;;;18.16;100.00;96511.16;5068117;28;20031;-75
2022/09/01 10:26:17;;;;;;;8.63;6.28;;;;;;;18.43;100.00;96504.06;5052534;28;20111;-74
2022/09/01 10:28:50;;;;;;;7.10;5.22;;;;;;;18.42;100.00;96514.94;5071409;28;20524;-74
2022/09/01 10:31:16;;;;;;;6.55;5.22;;;;;;;18.45;100.00;96506.53;5070067;28;20036;-75
2022/09/01 10:33:42;;;;;;;6.30;4.43;;;;;;;18.45;100.00;96504.69;5070106;28;20031;-74
2022/09/01 10:36:09;;;;;;;8.38;4.50;;;;;;;18.73;100.00;96512.53;5066101;28;20052;-74
2022/09/01 10:38:34;;;;;;;6.03;4.30;;;;;;;18.84;100.00;96503.94;5067394;28;20448;-74
2022/09/01 10:41:06;;;;;;;5.63;3.97;;;;;;;19.25;100.00;96499.44;5067971;28;20029;-74
2022/09/01 10:43:43;;;;;;;7.60;4.65;;;;;;;18.74;100.00;96498.19;5063971;28;20032;-75
2022/09/01 10:46:18;;;;;;;6.40;4.45;;;;;;;18.78;100.00;96502.09;5061818;28;20081;-75
2022/09/01 10:48:46;;;;;;;7.68;4.72;;;;;;;19.20;100.00;96494.69;5061964;28;20056;-74
2022/09/01 10:51:12;;;;;;;6.60;5.03;;;;;;;18.91;100.00;96503.13;5060965;28;20066;-74
2022/09/01 10:53:43;;;;;;;5.80;4.55;;;;;;;18.97;100.00;96500.47;5062464;28;20060;-75
2022/09/01 10:56:35;;;;;;;6.20;4.53;;;;;;;19.06;100.00;96501.91;5059803;28;20393;-75
2022/09/01 10:59:24;;;;;;;6.50;4.45;;;;;;;19.31;100.00;96498.56;5066017;28;20032;-75
2022/09/01 11:01:50;;;;;;;8.80;4.35;;;;;;;19.28;100.00;96494.50;5059216;28;20094;-74
2022/09/01 11:04:17;;;;;;;5.63;3.78;;;;;;;19.28;100.00;96488.31;5061237;28;20143;-75
2022/09/01 11:07:00;;;;;;;6.63;4.32;;;;;;;19.34;100.00;96487.50;5062609;28;20036;-74
2022/09/01 11:09:34;;;;;;;7.30;4.68;;;;;;;19.80;100.00;96486.59;5061554;28;20124;-75
2022/09/01 11:12:29;;;;;;;8.52;4.60;;;;;;;19.90;100.00;96497.63;5060016;28;20040;-75
2022/09/01 11:14:54;;;;;;;7.45;4.18;;;;;;;20.14;100.00;96497.94;5058945;28;20051;-74
2022/09/01 11:17:22;;;;;;;6.80;4.30;;;;;;;19.79;100.00;96495.63;5058342;28;20029;-74
2022/09/01 11:20:09;;;;;;;5.63;3.88;;;;;;;19.65;100.00;96499.34;5061170;28;20032;-75
2022/09/01 11:22:57;;;;;;;7.55;4.28;;;;;;;19.45;100.00;96499.38;5059220;28;20068;-73
2022/09/01 11:25:42;;;;;;;8.65;4.70;;;;;;;19.27;100.00;96492.03;5075159;28;20040;-74
2022/09/01 11:28:34;;;;;;;6.47;4.18;;;;;;;19.22;100.00;96495.31;5058242;28;20097;-74
2022/09/01 11:31:07;;;;;;;6.43;3.92;;;;;;;19.71;100.00;96493.19;5060703;28;20055;-74
2022/09/01 11:34:08;;;;;;;5.78;3.97;;;;;;;19.49;100.00;96490.75;5053900;28;20033;-74
2022/09/01 11:36:46;;;;;;;4.68;3.42;;;;;;;19.65;100.00;96489.53;5061892;28;20033;-74
2022/09/01 11:39:17;;;;;;;5.15;3.35;;;;;;;19.61;100.00;96492.78;5057719;28;20035;-74
2022/09/01 11:41:54;;;;;;;6.18;3.53;;;;;;;19.94;100.00;96487.34;5061058;28;20077;-75
2022/09/01 11:44:26;;;;;;;6.68;3.42;;;;;;;20.36;100.00;96475.22;5063137;28;20029;-75